createdAt,value
2019-06-07T00:03:43.532Z,95607.00
2019-06-07T00:09:15.330Z,95597.00
2019-06-07T00:14:43.879Z,95603.00
2019-06-07T00:20:16.779Z,95598.00
2019-06-07T00:25:44.797Z,95581.00
2019-06-07T00:31:14.958Z,95574.00
2019-06-07T00:36:45.071Z,95583.00
2019-06-07T00:42:17.500Z,95576.00
2019-06-07T00:47:45.385Z,95566.00
2019-06-07T00:53:20.015Z,95552.00
2019-06-07T00:58:45.811Z,95554.00
2019-06-07T01:04:17.795Z,95531.00
2019-06-07T01:09:46.092Z,95531.00
2019-06-07T01:15:22.152Z,95521.00
2019-06-07T01:20:49.376Z,95516.00
2019-06-07T01:26:21.618Z,95498.00
2019-06-07T01:31:49.945Z,95490.00
2019-06-07T01:37:20.150Z,95498.00
2019-06-07T01:42:50.237Z,95493.00
2019-06-07T01:48:23.146Z,95490.00
2019-06-07T01:54:41.431Z,95485.00
2019-06-07T01:59:25.087Z,95476.00
2019-06-07T02:04:54.707Z,95480.00
2019-06-07T02:10:27.712Z,95470.00
2019-06-07T02:15:55.123Z,95478.00
2019-06-07T02:21:27.782Z,95479.00
2019-06-07T02:26:55.879Z,95480.00
2019-06-07T02:32:29.781Z,95474.00
2019-06-07T02:37:58.013Z,95466.00
2019-06-07T02:43:28.393Z,95461.00
2019-06-07T02:48:58.301Z,95447.00
2019-06-07T02:54:30.900Z,95443.00
2019-06-07T03:00:16.758Z,95452.00
2019-06-07T03:05:34.201Z,95451.00
2019-06-07T03:11:02.571Z,95452.00
2019-06-07T03:16:39.151Z,95441.00
2019-06-07T03:22:08.471Z,95438.00
2019-06-07T03:27:47.319Z,95433.00
2019-06-07T03:33:09.199Z,95436.00
2019-06-07T03:38:39.858Z,95438.00
2019-06-07T03:44:09.391Z,95453.00
2019-06-07T03:49:42.180Z,95459.00
2019-06-07T03:55:15.020Z,95465.00
2019-06-07T04:00:47.616Z,95460.00
2019-06-07T04:06:16.883Z,95464.00
2019-06-07T04:11:46.222Z,95483.00
2019-06-07T04:17:15.513Z,95474.00
2019-06-07T04:22:44.786Z,95479.00
2019-06-07T04:28:15.050Z,95487.00
2019-06-07T04:33:44.365Z,95488.00
2019-06-07T04:39:13.644Z,95465.00
2019-06-07T04:44:43.531Z,95472.00
2019-06-07T04:50:13.115Z,95461.00
2019-06-07T04:55:42.703Z,95463.00
2019-06-07T05:01:26.953Z,95481.00
2019-06-07T05:06:43.128Z,95463.00
2019-06-07T05:12:12.564Z,95447.00
2019-06-07T05:17:44.997Z,95435.00
2019-06-07T05:23:59.482Z,95433.00
2019-06-07T05:28:44.834Z,95424.00
2019-06-07T05:34:15.070Z,95429.00
2019-06-07T05:39:46.371Z,95436.00
2019-06-07T05:45:20.087Z,95437.00
2019-06-07T05:50:56.583Z,95438.00
2019-06-07T05:56:20.585Z,95441.00
2019-06-07T06:02:00.243Z,95440.00
2019-06-07T06:07:20.905Z,95438.00
2019-06-07T06:12:51.991Z,95426.00
2019-06-07T06:18:21.229Z,95423.00
2019-06-07T06:23:51.959Z,95440.00
2019-06-07T06:29:21.503Z,95438.00
2019-06-07T06:34:54.045Z,95429.00
2019-06-07T06:40:22.862Z,95419.00
2019-06-07T06:45:52.161Z,95412.00
2019-06-07T06:51:21.492Z,95409.00
2019-06-07T06:56:52.791Z,95416.00
2019-06-07T07:02:21.899Z,95398.00
2019-06-07T07:07:52.899Z,95404.00
2019-06-07T07:13:23.308Z,95400.00
2019-06-07T07:18:54.529Z,95393.00
2019-06-07T07:24:23.668Z,95393.00
2019-06-07T07:30:22.773Z,95371.00
2019-06-07T07:35:23.963Z,95377.00
2019-06-07T07:41:07.463Z,95373.00
2019-06-07T07:46:29.642Z,95367.00
2019-06-07T07:51:58.954Z,95359.00
2019-06-07T07:57:27.800Z,95361.00
2019-06-07T08:02:59.632Z,95358.00
2019-06-07T08:08:29.558Z,95353.00
2019-06-07T08:13:58.997Z,95345.00
2019-06-07T08:19:29.277Z,95328.00
2019-06-07T08:25:01.849Z,95326.00
2019-06-07T08:36:16.973Z,95319.00
2019-06-07T08:41:31.788Z,95317.00
2019-06-07T08:47:19.323Z,95305.00
2019-06-07T08:52:32.224Z,95302.00
2019-06-07T08:58:05.754Z,95300.00
2019-06-07T09:03:35.678Z,95297.00
2019-06-07T09:09:08.353Z,95299.00
2019-06-07T09:14:58.903Z,95286.00
2019-06-07T09:20:35.101Z,95287.00
2019-06-07T09:25:56.793Z,95290.00
2019-06-07T09:31:14.037Z,95281.00
2019-06-07T09:36:43.486Z,95275.00
2019-06-07T09:42:12.959Z,95266.00
2019-06-07T09:47:42.208Z,95260.00
2019-06-07T09:53:21.729Z,95260.00
2019-06-07T09:58:52.535Z,95243.00
2019-06-07T10:04:28.482Z,95232.00
2019-06-07T10:15:16.205Z,95212.00
2019-06-07T10:20:45.470Z,95212.00
2019-06-07T10:26:14.749Z,95212.00
2019-06-07T10:31:44.019Z,95206.00
2019-06-07T10:37:15.666Z,95214.00
2019-06-07T10:42:44.334Z,95205.00
2019-06-07T10:48:13.679Z,95210.00
2019-06-07T10:53:42.972Z,95203.00
2019-06-07T10:59:13.585Z,95191.00
2019-06-07T11:04:43.008Z,95193.00
2019-06-07T11:10:19.083Z,95183.00
2019-06-07T11:15:45.025Z,95186.00
2019-06-07T11:21:14.473Z,95174.00
2019-06-07T11:26:43.715Z,95189.00
2019-06-07T11:32:13.031Z,95178.00
2019-06-07T11:37:42.328Z,95181.00
2019-06-07T11:43:12.748Z,95189.00
2019-06-07T11:48:42.235Z,95181.00
2019-06-07T11:54:12.058Z,95177.00
2019-06-07T11:59:41.464Z,95162.00
2019-06-07T12:05:15.287Z,95157.00
2019-06-07T12:10:42.931Z,95146.00
2019-06-07T12:16:13.286Z,95136.00
2019-06-07T12:21:42.564Z,95135.00
2019-06-07T12:27:12.743Z,95130.00
2019-06-07T12:32:42.153Z,95124.00
2019-06-07T12:38:12.283Z,95117.00
2019-06-07T12:43:41.815Z,95119.00
2019-06-07T12:49:11.120Z,95103.00
2019-06-07T12:54:40.392Z,95101.00
2019-06-07T13:00:16.103Z,95086.00
2019-06-07T13:05:45.514Z,95092.00
2019-06-07T13:11:21.256Z,95084.00
2019-06-07T13:16:45.797Z,95087.00
2019-06-07T13:22:16.176Z,95077.00
2019-06-07T13:27:45.512Z,95077.00
2019-06-07T13:33:14.775Z,95071.00
2019-06-07T13:38:44.092Z,95069.00
2019-06-07T13:44:13.373Z,95062.00
2019-06-07T13:49:42.720Z,95068.00
2019-06-07T13:55:13.565Z,95062.00
2019-06-07T14:00:42.849Z,95057.00
2019-06-07T14:06:12.123Z,95055.00
2019-06-07T14:11:50.447Z,95038.00
2019-06-07T14:17:12.426Z,95042.00
2019-06-07T14:22:41.731Z,95027.00
2019-06-07T14:28:11.967Z,95011.00
2019-06-07T14:33:41.373Z,95021.00
2019-06-07T14:39:10.658Z,95012.00
2019-06-07T14:44:39.926Z,95012.00
2019-06-07T14:50:11.804Z,95004.00
2019-06-07T14:55:41.088Z,95005.00
2019-06-07T15:01:10.396Z,95012.00
2019-06-07T15:06:39.696Z,95009.00
2019-06-07T15:12:24.165Z,95005.00
2019-06-07T15:17:41.771Z,95004.00
2019-06-07T15:23:11.042Z,94995.00
2019-06-07T15:28:40.320Z,94985.00
2019-06-07T15:34:09.595Z,94989.00
2019-06-07T15:39:38.882Z,94986.00
2019-06-07T15:45:08.944Z,94978.00
2019-06-07T15:50:38.407Z,94978.00
2019-06-07T15:56:07.742Z,94978.00
2019-06-07T16:01:42.440Z,94978.00
2019-06-07T16:07:11.700Z,94988.00
2019-06-07T16:12:58.590Z,94981.00
2019-06-07T16:18:13.757Z,94974.00
2019-06-07T16:23:44.115Z,94975.00
2019-06-07T16:29:13.505Z,94975.00
2019-06-07T16:34:43.822Z,94970.00
2019-06-07T16:40:14.843Z,94971.00
2019-06-07T16:45:44.953Z,94964.00
2019-06-07T16:51:14.251Z,94984.00
2019-06-07T16:56:47.264Z,94975.00
2019-06-07T17:02:14.560Z,94985.00
2019-06-07T17:07:44.801Z,94978.00
2019-06-07T17:13:14.853Z,94980.00
2019-06-07T17:18:45.310Z,94978.00
2019-06-07T17:24:14.558Z,94978.00
2019-06-07T17:29:43.852Z,94986.00
2019-06-07T17:35:13.404Z,94977.00
2019-06-07T17:40:42.830Z,94989.00
2019-06-07T17:46:12.131Z,94996.00
2019-06-07T17:51:41.765Z,95006.00
2019-06-07T17:57:11.100Z,95002.00
2019-06-07T18:02:40.466Z,95021.00
2019-06-07T18:08:09.730Z,95026.00
2019-06-07T18:13:39.070Z,95023.00
2019-06-07T18:19:08.446Z,95021.00
2019-06-07T18:24:37.730Z,95024.00
2019-06-07T18:30:11.767Z,95031.00
2019-06-07T18:35:41.316Z,95039.00
2019-06-07T18:41:10.600Z,95036.00
2019-06-07T18:46:39.915Z,95039.00
2019-06-07T18:52:13.562Z,95044.00
2019-06-07T18:57:42.928Z,95043.00
2019-06-07T19:03:12.234Z,95061.00
2019-06-07T19:08:41.520Z,95070.00
2019-06-07T19:14:10.793Z,95080.00
2019-06-07T19:19:40.090Z,95092.00
2019-06-07T19:25:10.106Z,95096.00
2019-06-07T19:30:39.406Z,95111.00
2019-06-07T19:36:08.751Z,95121.00
2019-06-07T19:41:38.053Z,95136.00
2019-06-07T19:47:07.331Z,95155.00
2019-06-07T19:52:36.754Z,95161.00
2019-06-07T19:58:06.107Z,95182.00
2019-06-07T20:03:35.382Z,95202.00
2019-06-07T20:09:07.037Z,95217.00
2019-06-07T20:14:36.439Z,95250.00
2019-06-07T20:20:08.898Z,95256.00
2019-06-07T20:25:38.306Z,95260.00
2019-06-07T20:31:08.267Z,95276.00
2019-06-07T20:36:37.709Z,95287.00
2019-06-07T20:42:07.819Z,95309.00
2019-06-07T20:47:37.145Z,95319.00
2019-06-07T20:53:07.386Z,95333.00
2019-06-07T20:58:36.659Z,95355.00
2019-06-07T21:04:07.202Z,95372.00
2019-06-07T21:09:36.588Z,95401.00
2019-06-07T21:15:11.901Z,95450.00
2019-06-07T21:20:38.701Z,95499.00
2019-06-07T21:26:09.040Z,95537.00
2019-06-07T21:31:38.419Z,95563.00
2019-06-07T21:37:07.911Z,95601.00
2019-06-07T21:42:37.257Z,95613.00
2019-06-07T21:48:07.510Z,95655.00
2019-06-07T21:53:37.613Z,95689.00
2019-06-07T21:59:07.123Z,95702.00
2019-06-07T22:04:37.250Z,95747.00
2019-06-07T22:10:08.054Z,95791.00
2019-06-07T22:15:37.648Z,95811.00
2019-06-07T22:21:07.044Z,95825.00
2019-06-07T22:26:36.325Z,95844.00
2019-06-07T22:32:06.699Z,95875.00
2019-06-07T22:37:36.026Z,95887.00
2019-06-07T22:43:05.434Z,95895.00
2019-06-07T22:48:34.702Z,95899.00
2019-06-07T22:54:03.973Z,95894.00
2019-06-07T22:59:33.274Z,95894.00
2019-06-07T23:05:04.782Z,95911.00
2019-06-07T23:10:33.653Z,95911.00
2019-06-07T23:16:03.155Z,95908.00
2019-06-07T23:21:32.424Z,95912.00
2019-06-07T23:27:01.707Z,95899.00
2019-06-07T23:32:31.069Z,95885.00
2019-06-07T23:38:00.330Z,95897.00
2019-06-07T23:43:29.601Z,95898.00
2019-06-07T23:48:58.888Z,95888.00
2019-06-07T23:54:28.203Z,95893.00
2019-06-07T23:59:57.483Z,95900.00
